createdAt,value
2018-12-02T00:00:30.980Z,96.80
2018-12-02T00:02:06.132Z,96.80
2018-12-02T00:03:41.001Z,96.80
2018-12-02T00:05:15.902Z,96.80
2018-12-02T00:07:06.391Z,96.80
2018-12-02T00:08:41.257Z,96.90
2018-12-02T00:10:17.134Z,96.80
2018-12-02T00:11:52.004Z,96.90
2018-12-02T00:13:26.863Z,96.80
2018-12-02T00:15:01.722Z,96.60
2018-12-02T00:16:36.697Z,96.70
2018-12-02T00:18:12.781Z,96.80
2018-12-02T00:19:47.805Z,96.70
2018-12-02T00:21:22.736Z,96.80
2018-12-02T00:22:57.660Z,96.60
2018-12-02T00:24:32.552Z,96.50
2018-12-02T00:26:07.403Z,96.60
2018-12-02T00:27:58.356Z,96.20
2018-12-02T00:29:33.269Z,96.40
2018-12-02T00:31:08.141Z,96.50
2018-12-02T00:32:43.222Z,96.20
2018-12-02T00:34:18.110Z,96.20
2018-12-02T00:35:52.966Z,96.40
2018-12-02T00:37:27.888Z,96.20
2018-12-02T00:39:02.750Z,96.30
2018-12-02T00:40:37.645Z,96.40
2018-12-02T00:42:12.577Z,96.40
2018-12-02T00:43:47.459Z,96.40
2018-12-02T00:45:23.426Z,96.30
2018-12-02T00:46:58.529Z,96.40
2018-12-02T00:48:33.380Z,96.40
2018-12-02T00:50:15.946Z,96.50
2018-12-02T00:51:50.829Z,96.50
2018-12-02T00:53:25.717Z,96.50
2018-12-02T00:55:00.564Z,96.60
2018-12-02T00:56:35.459Z,96.80
2018-12-02T00:58:10.338Z,96.90
2018-12-02T00:59:45.189Z,96.90
2018-12-02T01:01:20.217Z,96.80
2018-12-02T01:02:55.107Z,97.00
2018-12-02T01:04:30.013Z,97.00
2018-12-02T01:06:05.104Z,97.10
2018-12-02T01:07:40.012Z,97.10
2018-12-02T01:09:14.881Z,97.20
2018-12-02T01:10:49.729Z,97.20
2018-12-02T01:12:24.805Z,97.20
2018-12-02T01:13:59.672Z,97.20
2018-12-02T01:15:34.701Z,97.30
2018-12-02T01:17:09.719Z,97.20
2018-12-02T01:18:44.609Z,97.60
2018-12-02T01:20:22.312Z,97.30
2018-12-02T01:21:57.248Z,97.30
2018-12-02T01:23:32.124Z,97.30
2018-12-02T01:25:08.204Z,97.30
2018-12-02T01:26:43.073Z,97.30
2018-12-02T01:28:17.973Z,97.20
2018-12-02T01:29:52.836Z,97.20
2018-12-02T01:31:27.713Z,97.20
2018-12-02T01:33:02.635Z,97.20
2018-12-02T01:34:37.549Z,97.20
2018-12-02T01:36:12.603Z,97.20
2018-12-02T01:37:47.509Z,97.10
2018-12-02T01:39:22.408Z,97.10
2018-12-02T01:40:57.313Z,97.00
2018-12-02T01:42:32.212Z,97.00
2018-12-02T01:44:07.084Z,97.00
2018-12-02T01:45:41.957Z,96.90
2018-12-02T01:47:16.897Z,96.90
2018-12-02T01:48:51.838Z,96.70
2018-12-02T01:50:27.150Z,96.90
2018-12-02T01:52:02.042Z,96.60
2018-12-02T01:53:36.931Z,96.50
2018-12-02T01:55:11.826Z,96.50
2018-12-02T01:56:46.676Z,96.30
2018-12-02T01:58:21.687Z,96.30
2018-12-02T01:59:56.577Z,96.40
2018-12-02T02:01:31.441Z,96.20
2018-12-02T02:03:06.330Z,96.40
2018-12-02T02:04:41.190Z,96.30
2018-12-02T02:06:16.200Z,96.30
2018-12-02T02:07:51.124Z,96.30
2018-12-02T02:09:26.044Z,96.40
2018-12-02T02:11:01.080Z,96.50
2018-12-02T02:12:35.912Z,96.60
2018-12-02T02:14:10.953Z,96.70
2018-12-02T02:15:45.853Z,96.70
2018-12-02T02:17:20.848Z,96.80
2018-12-02T02:18:55.739Z,96.80
2018-12-02T02:20:30.646Z,96.90
2018-12-02T02:22:05.672Z,96.90
2018-12-02T02:23:40.686Z,97.00
2018-12-02T02:25:17.302Z,97.00
2018-12-02T02:26:52.241Z,97.00
2018-12-02T02:28:27.346Z,97.10
2018-12-02T02:30:02.428Z,97.20
2018-12-02T02:31:37.478Z,97.50
2018-12-02T02:33:12.404Z,97.10
2018-12-02T02:34:47.324Z,97.20
2018-12-02T02:36:22.186Z,97.30
2018-12-02T02:37:57.858Z,97.30
2018-12-02T02:39:32.814Z,97.80
2018-12-02T02:41:07.709Z,97.50
2018-12-02T02:42:42.566Z,97.50
2018-12-02T02:44:17.460Z,97.60
2018-12-02T02:45:52.376Z,97.50
2018-12-02T02:47:27.260Z,97.50
2018-12-02T02:49:02.368Z,97.60
2018-12-02T02:50:37.251Z,97.50
2018-12-02T02:52:12.137Z,97.60
2018-12-02T02:53:47.013Z,97.60
2018-12-02T02:55:21.944Z,97.60
2018-12-02T02:56:56.962Z,97.60
2018-12-02T02:58:31.808Z,97.60
2018-12-02T03:00:11.356Z,97.50
2018-12-02T03:01:46.193Z,97.60
2018-12-02T03:03:21.737Z,97.60
2018-12-02T03:04:56.661Z,97.60
2018-12-02T03:06:31.493Z,97.60
2018-12-02T03:08:06.794Z,97.50
2018-12-02T03:09:41.733Z,97.60
2018-12-02T03:11:16.662Z,97.60
2018-12-02T03:12:53.311Z,97.50
2018-12-02T03:14:28.291Z,97.50
2018-12-02T03:16:03.333Z,97.50
2018-12-02T03:17:38.237Z,97.50
2018-12-02T03:19:13.169Z,97.60
2018-12-02T03:20:48.169Z,97.60
2018-12-02T03:22:23.075Z,97.60
2018-12-02T03:24:00.212Z,97.60
2018-12-02T03:25:35.162Z,97.60
2018-12-02T03:27:10.059Z,97.60
2018-12-02T03:28:45.016Z,97.60
2018-12-02T03:30:20.730Z,97.70
2018-12-02T03:31:55.650Z,97.70
2018-12-02T03:33:30.533Z,97.60
2018-12-02T03:35:06.059Z,97.60
2018-12-02T03:36:40.896Z,97.50
2018-12-02T03:38:15.772Z,97.60
2018-12-02T03:39:50.756Z,97.60
2018-12-02T03:41:25.619Z,97.70
2018-12-02T03:43:00.513Z,97.50
2018-12-02T03:44:35.377Z,97.50
2018-12-02T03:46:10.292Z,97.40
2018-12-02T03:47:45.128Z,97.30
2018-12-02T03:49:19.980Z,97.40
2018-12-02T03:50:54.904Z,97.30
2018-12-02T03:52:29.776Z,97.30
2018-12-02T03:54:04.716Z,97.30
2018-12-02T03:55:39.789Z,97.30
2018-12-02T03:57:14.645Z,97.30
2018-12-02T03:58:49.514Z,97.20
2018-12-02T04:00:25.471Z,97.40
2018-12-02T04:02:00.355Z,97.00
2018-12-02T04:03:35.228Z,97.10
2018-12-02T04:05:11.133Z,97.10
2018-12-02T04:06:45.990Z,97.00
2018-12-02T04:08:20.917Z,96.90
2018-12-02T04:09:55.753Z,97.00
2018-12-02T04:11:30.638Z,96.90
2018-12-02T04:13:05.711Z,96.60
2018-12-02T04:14:40.576Z,96.60
2018-12-02T04:16:15.500Z,96.50
2018-12-02T04:17:50.417Z,96.60
2018-12-02T04:19:25.301Z,96.30
2018-12-02T04:21:00.197Z,96.30
2018-12-02T04:22:35.061Z,96.40
2018-12-02T04:24:09.921Z,96.50
2018-12-02T04:25:44.938Z,96.20
2018-12-02T04:27:19.814Z,96.10
2018-12-02T04:28:54.673Z,95.70
2018-12-02T04:30:29.639Z,95.90
2018-12-02T04:32:04.485Z,95.80
2018-12-02T04:33:39.370Z,95.70
2018-12-02T04:35:15.431Z,95.90
2018-12-02T04:36:50.336Z,95.20
2018-12-02T04:38:25.191Z,95.60
2018-12-02T04:40:00.051Z,95.20
2018-12-02T04:41:36.321Z,95.40
2018-12-02T04:43:11.207Z,95.50
2018-12-02T04:44:46.080Z,95.40
2018-12-02T04:46:21.117Z,95.40
2018-12-02T04:47:55.983Z,95.50
2018-12-02T04:49:30.866Z,95.50
2018-12-02T04:51:06.152Z,95.70
2018-12-02T04:52:41.022Z,95.70
2018-12-02T04:54:15.868Z,95.70
2018-12-02T04:55:50.791Z,95.70
2018-12-02T04:57:25.672Z,95.70
2018-12-02T04:59:00.533Z,95.70
2018-12-02T05:00:35.416Z,95.80
2018-12-02T05:02:10.337Z,95.80
2018-12-02T05:03:45.130Z,95.80
2018-12-02T05:05:20.770Z,95.90
2018-12-02T05:06:55.637Z,95.70
2018-12-02T05:08:30.482Z,95.70
2018-12-02T05:10:15.901Z,95.70
2018-12-02T05:11:50.794Z,95.70
2018-12-02T05:13:25.651Z,95.50
2018-12-02T05:15:00.504Z,95.40
2018-12-02T05:16:35.401Z,95.60
2018-12-02T05:18:10.309Z,95.60
2018-12-02T05:19:45.179Z,95.70
2018-12-02T05:21:20.073Z,95.60
2018-12-02T05:22:54.956Z,95.50
2018-12-02T05:24:29.821Z,95.30
2018-12-02T05:26:05.259Z,95.40
2018-12-02T05:27:40.171Z,95.20
2018-12-02T05:29:15.033Z,95.50
2018-12-02T05:30:49.921Z,95.60
2018-12-02T05:32:24.806Z,95.20
2018-12-02T05:33:59.712Z,95.50
2018-12-02T05:35:34.556Z,95.30
2018-12-02T05:37:09.453Z,95.20
2018-12-02T05:38:44.333Z,95.10
2018-12-02T05:40:21.157Z,95.50
2018-12-02T05:42:01.386Z,95.60
2018-12-02T05:43:36.282Z,95.40
2018-12-02T05:45:13.266Z,95.40
2018-12-02T05:46:48.182Z,95.40
2018-12-02T05:48:23.123Z,95.40
2018-12-02T05:49:58.005Z,95.40
2018-12-02T05:51:32.973Z,95.40
2018-12-02T05:53:07.835Z,95.10
2018-12-02T05:54:42.701Z,95.00
2018-12-02T05:56:17.560Z,95.10
2018-12-02T05:57:52.483Z,95.10
2018-12-02T05:59:27.394Z,95.20
2018-12-02T06:01:02.232Z,94.80
2018-12-02T06:02:39.517Z,94.80
2018-12-02T06:04:12.093Z,95.00
2018-12-02T06:05:46.941Z,95.10
2018-12-02T06:07:21.794Z,94.80
2018-12-02T06:08:56.666Z,95.00
2018-12-02T06:10:31.600Z,94.90
2018-12-02T06:12:06.468Z,94.80
2018-12-02T06:13:41.310Z,95.00
2018-12-02T06:15:17.776Z,94.80
2018-12-02T06:16:53.449Z,94.70
2018-12-02T06:18:28.330Z,94.70
2018-12-02T06:20:04.918Z,94.70
2018-12-02T06:21:38.086Z,94.80
2018-12-02T06:23:12.948Z,94.40
2018-12-02T06:24:47.843Z,94.00
2018-12-02T06:26:22.702Z,94.10
2018-12-02T06:27:57.648Z,94.40
2018-12-02T06:29:32.607Z,93.90
2018-12-02T06:31:07.656Z,94.20
2018-12-02T06:32:42.597Z,94.30
2018-12-02T06:34:17.491Z,94.50
2018-12-02T06:35:52.336Z,94.30
2018-12-02T06:37:27.296Z,94.30
2018-12-02T06:39:02.192Z,94.00
2018-12-02T06:40:37.040Z,93.90
2018-12-02T06:42:11.896Z,93.90
2018-12-02T06:43:46.771Z,92.80
2018-12-02T06:45:22.040Z,92.70
2018-12-02T06:46:56.899Z,93.20
2018-12-02T06:48:31.802Z,93.50
2018-12-02T06:50:10.740Z,93.40
2018-12-02T06:51:45.622Z,93.50
2018-12-02T06:53:20.517Z,93.50
2018-12-02T06:54:57.984Z,93.60
2018-12-02T06:56:37.652Z,92.40
2018-12-02T06:58:22.670Z,92.40
2018-12-02T07:00:05.927Z,93.00
2018-12-02T07:01:56.278Z,92.90
2018-12-02T07:03:43.036Z,93.00
2018-12-02T07:05:24.025Z,92.50
2018-12-02T07:06:59.681Z,92.80
2018-12-02T07:08:34.542Z,93.10
2018-12-02T07:10:09.442Z,93.00
2018-12-02T07:11:44.334Z,92.80
2018-12-02T07:13:19.202Z,92.90
2018-12-02T07:14:54.147Z,93.20
2018-12-02T07:16:29.040Z,93.50
2018-12-02T07:18:06.197Z,93.70
2018-12-02T07:19:45.059Z,93.70
2018-12-02T07:21:22.778Z,93.00
2018-12-02T07:23:01.415Z,92.80
2018-12-02T07:24:38.091Z,92.70
2018-12-02T07:26:14.488Z,92.80
2018-12-02T07:27:49.420Z,93.10
2018-12-02T07:29:24.354Z,93.10
2018-12-02T07:30:59.235Z,93.00
2018-12-02T07:32:34.079Z,92.70
2018-12-02T07:34:25.814Z,92.80
2018-12-02T07:36:17.397Z,92.10
2018-12-02T07:38:10.858Z,93.00
2018-12-02T07:40:14.254Z,92.80
2018-12-02T07:41:49.222Z,93.00
2018-12-02T07:43:24.155Z,93.10
2018-12-02T07:44:59.036Z,93.20
2018-12-02T07:46:33.918Z,93.40
2018-12-02T07:48:08.788Z,93.50
2018-12-02T07:49:43.681Z,93.60
2018-12-02T07:51:18.560Z,93.70
2018-12-02T07:52:53.424Z,93.70
2018-12-02T07:54:28.326Z,93.70
2018-12-02T07:56:03.196Z,93.90
2018-12-02T07:57:38.049Z,94.10
2018-12-02T07:59:12.916Z,94.30
2018-12-02T08:00:47.779Z,94.40
2018-12-02T08:02:22.625Z,94.50
2018-12-02T08:03:57.515Z,94.60
2018-12-02T08:05:32.509Z,94.50
2018-12-02T08:07:07.498Z,94.50
2018-12-02T08:08:42.396Z,94.60
2018-12-02T08:10:18.114Z,94.50
2018-12-02T08:11:52.969Z,94.50
2018-12-02T08:13:27.861Z,94.60
2018-12-02T08:15:02.751Z,95.10
2018-12-02T08:16:37.668Z,95.10
2018-12-02T08:18:12.584Z,94.80
2018-12-02T08:19:47.453Z,94.50
2018-12-02T08:21:22.344Z,94.60
2018-12-02T08:22:57.231Z,94.30
2018-12-02T08:24:32.136Z,94.20
2018-12-02T08:26:07.086Z,94.50
2018-12-02T08:27:42.210Z,94.40
2018-12-02T08:29:17.088Z,94.70
2018-12-02T08:30:51.950Z,94.30
2018-12-02T08:32:26.989Z,94.20
2018-12-02T08:34:01.939Z,93.90
2018-12-02T08:35:36.791Z,94.00
2018-12-02T08:37:11.681Z,93.90
2018-12-02T08:38:46.579Z,93.80
2018-12-02T08:40:21.441Z,93.90
2018-12-02T08:41:56.372Z,93.90
2018-12-02T08:43:31.241Z,93.70
2018-12-02T08:45:08.950Z,93.90
2018-12-02T08:46:43.965Z,94.40
2018-12-02T08:48:18.876Z,94.40
2018-12-02T08:49:53.747Z,94.70
2018-12-02T08:51:28.645Z,94.30
2018-12-02T08:53:03.534Z,94.70
2018-12-02T08:54:38.428Z,94.50
2018-12-02T08:56:13.364Z,95.10
2018-12-02T08:57:49.228Z,94.60
2018-12-02T08:59:24.136Z,95.10
2018-12-02T09:00:59.667Z,94.70
2018-12-02T09:02:34.693Z,95.10
2018-12-02T09:04:09.581Z,95.20
2018-12-02T09:05:44.453Z,94.90
2018-12-02T09:07:19.342Z,95.00
2018-12-02T09:08:54.473Z,95.00
2018-12-02T09:10:30.420Z,94.90
2018-12-02T09:12:05.759Z,94.80
2018-12-02T09:13:41.208Z,95.30
2018-12-02T09:15:16.175Z,95.40
2018-12-02T09:16:51.050Z,95.40
2018-12-02T09:18:25.904Z,95.40
2018-12-02T09:20:00.825Z,95.40
2018-12-02T09:21:35.724Z,95.30
2018-12-02T09:23:11.567Z,95.10
2018-12-02T09:24:46.465Z,95.60
2018-12-02T09:26:21.345Z,94.60
2018-12-02T09:27:56.211Z,95.20
2018-12-02T09:29:31.330Z,94.50
2018-12-02T09:31:06.176Z,94.80
2018-12-02T09:32:41.014Z,95.20
2018-12-02T09:34:15.928Z,94.70
2018-12-02T09:35:50.837Z,94.80
2018-12-02T09:37:25.686Z,95.20
2018-12-02T09:39:00.732Z,94.90
2018-12-02T09:40:35.641Z,95.00
2018-12-02T09:42:10.630Z,94.60
2018-12-02T09:43:45.509Z,94.80
2018-12-02T09:45:24.308Z,95.00
2018-12-02T09:46:59.171Z,94.90
2018-12-02T09:48:34.205Z,95.00
2018-12-02T09:50:10.431Z,94.90
2018-12-02T09:51:45.308Z,94.90
2018-12-02T09:53:20.368Z,95.00
2018-12-02T09:54:55.238Z,95.10
2018-12-02T09:56:30.122Z,94.90
2018-12-02T09:58:05.639Z,94.40
2018-12-02T09:59:40.627Z,94.90
2018-12-02T10:01:15.600Z,95.20
2018-12-02T10:02:50.485Z,95.00
2018-12-02T10:04:25.368Z,95.00
2018-12-02T10:06:00.278Z,95.00
2018-12-02T10:07:35.148Z,95.10
2018-12-02T10:09:11.150Z,95.10
2018-12-02T10:10:46.035Z,95.00
2018-12-02T10:12:20.961Z,94.90
2018-12-02T10:13:55.805Z,95.00
2018-12-02T10:15:30.817Z,95.10
2018-12-02T10:17:05.991Z,95.20
2018-12-02T10:18:40.857Z,95.40
2018-12-02T10:20:16.325Z,95.20
2018-12-02T10:21:51.166Z,95.40
2018-12-02T10:23:26.092Z,95.20
2018-12-02T10:25:01.037Z,95.00
2018-12-02T10:26:36.424Z,95.00
2018-12-02T10:28:11.610Z,95.10
2018-12-02T10:29:46.601Z,94.90
2018-12-02T10:31:21.522Z,95.10
2018-12-02T10:32:57.220Z,95.40
2018-12-02T10:34:32.135Z,95.40
2018-12-02T10:36:07.143Z,95.30
2018-12-02T10:37:42.069Z,95.10
2018-12-02T10:39:16.909Z,95.40
2018-12-02T10:40:51.835Z,95.50
2018-12-02T10:42:26.741Z,95.10
2018-12-02T10:44:01.618Z,94.80
2018-12-02T10:45:36.628Z,94.90
2018-12-02T10:47:11.522Z,95.20
2018-12-02T10:48:46.432Z,95.00
2018-12-02T10:50:25.477Z,95.00
2018-12-02T10:52:00.335Z,94.90
2018-12-02T10:53:35.239Z,94.90
2018-12-02T10:55:14.350Z,95.50
2018-12-02T10:56:49.164Z,95.50
2018-12-02T10:58:26.093Z,94.80
2018-12-02T11:00:01.005Z,94.80
2018-12-02T11:01:37.784Z,94.90
2018-12-02T11:03:12.800Z,94.90
2018-12-02T11:04:47.741Z,94.20
2018-12-02T11:06:22.653Z,94.30
2018-12-02T11:07:57.520Z,93.80
2018-12-02T11:09:32.451Z,93.50
2018-12-02T11:11:07.359Z,93.80
2018-12-02T11:12:42.213Z,94.00
2018-12-02T11:14:17.943Z,94.20
2018-12-02T11:15:53.133Z,94.00
2018-12-02T11:17:28.100Z,94.30
2018-12-02T11:19:03.009Z,94.10
2018-12-02T11:20:37.952Z,94.20
2018-12-02T11:22:12.812Z,94.10
2018-12-02T11:23:47.695Z,93.80
2018-12-02T11:25:22.615Z,94.30
2018-12-02T11:26:57.662Z,93.60
2018-12-02T11:28:32.533Z,93.50
2018-12-02T11:30:15.243Z,93.20
2018-12-02T11:31:51.461Z,93.50
2018-12-02T11:33:26.350Z,93.40
2018-12-02T11:35:01.257Z,93.10
2018-12-02T11:36:36.169Z,93.40
2018-12-02T11:38:11.040Z,93.50
2018-12-02T11:39:45.888Z,92.80
2018-12-02T11:41:20.793Z,93.10
2018-12-02T11:42:55.802Z,93.40
2018-12-02T11:44:30.678Z,93.60
2018-12-02T11:46:07.882Z,93.80
2018-12-02T11:47:45.195Z,93.80
2018-12-02T11:49:20.152Z,94.00
2018-12-02T11:50:57.382Z,94.00
2018-12-02T11:52:33.294Z,94.10
2018-12-02T11:54:08.703Z,94.20
2018-12-02T11:55:54.755Z,94.20
2018-12-02T11:57:31.851Z,94.20
2018-12-02T11:59:08.116Z,94.60
2018-12-02T12:00:44.501Z,94.60
2018-12-02T12:02:25.315Z,94.80
2018-12-02T12:04:01.087Z,94.70
2018-12-02T12:05:37.198Z,95.20
2018-12-02T12:07:18.427Z,95.00
2018-12-02T12:08:54.683Z,94.90
2018-12-02T12:10:29.689Z,94.90
2018-12-02T12:12:05.667Z,95.30
2018-12-02T12:13:40.560Z,95.20
2018-12-02T12:15:16.361Z,95.90
2018-12-02T12:16:51.371Z,95.40
2018-12-02T12:18:26.215Z,95.50
2018-12-02T12:20:01.069Z,95.60
2018-12-02T12:21:36.217Z,95.80
2018-12-02T12:23:17.358Z,95.50
2018-12-02T12:24:52.647Z,95.70
2018-12-02T12:26:27.647Z,95.60
2018-12-02T12:28:02.481Z,95.60
2018-12-02T12:29:37.365Z,95.70
2018-12-02T12:31:12.354Z,95.90
2018-12-02T12:32:47.160Z,95.90
2018-12-02T12:34:22.053Z,95.80
2018-12-02T12:35:57.157Z,95.60
2018-12-02T12:37:31.981Z,95.90
2018-12-02T12:39:08.445Z,96.20
2018-12-02T12:40:43.813Z,96.20
2018-12-02T12:42:19.066Z,96.30
2018-12-02T12:43:53.890Z,96.50
2018-12-02T12:45:28.798Z,96.60
2018-12-02T12:47:03.948Z,96.60
2018-12-02T12:48:38.750Z,96.90
2018-12-02T12:50:14.598Z,97.00
2018-12-02T12:51:49.783Z,96.90
2018-12-02T12:53:25.218Z,97.10
2018-12-02T12:55:00.406Z,97.00
2018-12-02T12:56:35.434Z,97.10
2018-12-02T12:58:10.924Z,97.00
2018-12-02T12:59:45.751Z,96.80
2018-12-02T13:01:20.993Z,97.20
2018-12-02T13:02:55.884Z,97.10
2018-12-02T13:04:30.827Z,97.10
2018-12-02T13:06:06.242Z,96.80
2018-12-02T13:07:41.246Z,96.90
2018-12-02T13:09:16.534Z,96.70
2018-12-02T13:10:51.500Z,96.80
2018-12-02T13:12:27.134Z,96.60
2018-12-02T13:14:02.198Z,96.60
2018-12-02T13:15:37.769Z,96.50
2018-12-02T13:17:13.353Z,96.50
2018-12-02T13:18:48.190Z,96.40
2018-12-02T13:20:23.890Z,96.30
2018-12-02T13:21:59.036Z,95.90
2018-12-02T13:23:33.858Z,95.70
2018-12-02T13:25:10.277Z,95.80
2018-12-02T13:26:45.473Z,95.60
2018-12-02T13:28:20.351Z,95.50
2018-12-02T13:29:55.326Z,95.60
2018-12-02T13:31:31.310Z,95.90
2018-12-02T13:33:07.101Z,95.50
2018-12-02T13:34:41.917Z,95.30
2018-12-02T13:36:17.480Z,95.60
2018-12-02T13:37:52.565Z,95.70
2018-12-02T13:39:27.520Z,95.70
2018-12-02T13:41:02.387Z,95.80
2018-12-02T13:42:37.297Z,95.90
2018-12-02T13:44:12.145Z,96.00
2018-12-02T13:45:47.645Z,96.00
2018-12-02T13:47:22.522Z,96.10
2018-12-02T13:48:57.353Z,96.10
2018-12-02T13:50:32.837Z,96.50
2018-12-02T13:52:09.143Z,95.90
2018-12-02T13:53:49.614Z,95.90
2018-12-02T13:55:26.251Z,95.90
2018-12-02T13:57:02.239Z,95.70
2018-12-02T13:58:38.665Z,95.80
2018-12-02T14:00:21.731Z,95.40
2018-12-02T14:01:57.081Z,95.50
2018-12-02T14:03:31.941Z,95.50
2018-12-02T14:05:09.034Z,95.20
2018-12-02T14:06:44.338Z,95.40
2018-12-02T14:08:20.379Z,95.10
2018-12-02T14:09:55.505Z,95.40
2018-12-02T14:11:33.926Z,95.40
2018-12-02T14:13:22.466Z,95.40
2018-12-02T14:14:59.046Z,95.40
2018-12-02T14:16:44.787Z,95.50
2018-12-02T14:18:25.697Z,95.30
2018-12-02T14:20:02.140Z,95.30
2018-12-02T14:21:37.276Z,95.40
2018-12-02T14:23:12.183Z,95.40
2018-12-02T14:24:50.039Z,95.30
2018-12-02T14:26:26.239Z,95.40
2018-12-02T14:28:03.982Z,95.40
2018-12-02T14:29:52.672Z,95.20
2018-12-02T14:31:31.310Z,95.30
2018-12-02T14:33:06.625Z,95.30
2018-12-02T14:34:44.439Z,95.30
2018-12-02T14:36:21.603Z,94.90
2018-12-02T14:38:02.008Z,95.20
2018-12-02T14:39:38.778Z,95.30
2018-12-02T14:41:16.941Z,95.40
2018-12-02T14:42:54.097Z,95.20
2018-12-02T14:44:29.972Z,95.40
2018-12-02T14:46:07.698Z,95.30
2018-12-02T14:47:44.905Z,95.30
2018-12-02T14:49:20.291Z,94.70
2018-12-02T14:50:56.350Z,95.00
2018-12-02T14:52:31.696Z,95.00
2018-12-02T14:54:07.678Z,94.60
2018-12-02T14:55:43.031Z,94.80
2018-12-02T14:57:18.845Z,95.30
2018-12-02T14:58:58.678Z,94.80
2018-12-02T15:00:40.083Z,95.10
2018-12-02T15:02:19.536Z,95.00
2018-12-02T15:03:55.956Z,95.20
2018-12-02T15:05:31.171Z,95.10
2018-12-02T15:07:10.099Z,95.20
2018-12-02T15:08:46.011Z,95.10
2018-12-02T15:10:23.327Z,95.30
2018-12-02T15:11:59.801Z,95.30
2018-12-02T15:13:34.676Z,94.70
2018-12-02T15:15:11.788Z,94.90
2018-12-02T15:16:46.660Z,95.00
2018-12-02T15:18:21.555Z,94.70
2018-12-02T15:19:56.421Z,95.00
2018-12-02T15:21:31.679Z,94.90
2018-12-02T15:23:07.637Z,94.30
2018-12-02T15:24:42.564Z,94.30
2018-12-02T15:26:17.379Z,94.30
2018-12-02T15:27:52.661Z,94.40
2018-12-02T15:29:27.556Z,94.20
2018-12-02T15:31:02.450Z,94.40
2018-12-02T15:32:37.335Z,94.50
2018-12-02T15:34:12.485Z,94.30
2018-12-02T15:35:47.343Z,94.50
2018-12-02T15:37:22.283Z,94.60
2018-12-02T15:38:57.130Z,94.40
2018-12-02T15:40:32.137Z,94.60
2018-12-02T15:42:07.050Z,94.10
2018-12-02T15:43:41.950Z,93.90
2018-12-02T15:45:17.183Z,94.10
2018-12-02T15:46:52.133Z,93.80
2018-12-02T15:48:26.988Z,94.30
2018-12-02T15:50:01.868Z,93.60
2018-12-02T15:51:36.745Z,93.80
2018-12-02T15:53:11.649Z,93.60
2018-12-02T15:54:46.558Z,94.10
2018-12-02T15:56:21.433Z,93.70
2018-12-02T15:57:56.770Z,93.90
2018-12-02T15:59:32.262Z,93.80
2018-12-02T16:01:07.156Z,93.70
2018-12-02T16:02:42.041Z,93.80
2018-12-02T16:04:16.914Z,93.40
2018-12-02T16:05:51.777Z,93.60
2018-12-02T16:07:26.766Z,94.00
2018-12-02T16:10:44.007Z,94.00
2018-12-02T16:12:18.925Z,93.70
2018-12-02T16:13:53.812Z,93.90
2018-12-02T16:15:34.169Z,94.00
2018-12-02T16:17:09.123Z,94.00
2018-12-02T16:18:44.017Z,94.20
2018-12-02T16:20:37.081Z,94.30
2018-12-02T16:22:12.010Z,94.30
2018-12-02T16:23:47.013Z,94.30
2018-12-02T16:25:22.092Z,94.30
2018-12-02T16:26:57.023Z,94.40
2018-12-02T16:28:31.897Z,94.30
2018-12-02T16:30:13.636Z,94.40
2018-12-02T16:31:48.652Z,94.30
2018-12-02T16:33:23.571Z,94.40
2018-12-02T16:34:58.453Z,94.30
2018-12-02T16:36:33.349Z,94.30
2018-12-02T16:38:10.018Z,94.30
2018-12-02T16:39:44.853Z,94.40
2018-12-02T16:41:19.796Z,94.20
2018-12-02T16:42:55.713Z,94.10
2018-12-02T16:44:30.579Z,94.20
2018-12-02T16:46:05.861Z,94.00
2018-12-02T16:47:41.181Z,94.00
2018-12-02T16:49:16.041Z,94.00
2018-12-02T16:50:50.996Z,93.90
2018-12-02T16:52:26.079Z,94.00
2018-12-02T16:54:01.020Z,94.20
2018-12-02T16:55:40.317Z,94.00
2018-12-02T16:57:15.934Z,94.10
2018-12-02T16:59:26.823Z,94.10
2018-12-02T17:01:08.863Z,94.00
2018-12-02T17:02:43.902Z,94.00
2018-12-02T17:04:19.045Z,94.00
2018-12-02T17:05:53.945Z,93.90
2018-12-02T17:07:28.902Z,93.90
2018-12-02T17:09:03.982Z,93.70
2018-12-02T17:10:38.858Z,93.90
2018-12-02T17:12:14.044Z,93.50
2018-12-02T17:13:49.119Z,93.60
2018-12-02T17:15:23.983Z,93.40
2018-12-02T17:16:58.856Z,93.60
2018-12-02T17:18:33.909Z,93.40
2018-12-02T17:20:10.776Z,93.50
2018-12-02T17:21:45.643Z,93.50
2018-12-02T17:23:20.592Z,93.30
2018-12-02T17:24:55.484Z,93.50
2018-12-02T17:26:30.374Z,93.40
2018-12-02T17:28:12.081Z,93.40
2018-12-02T17:29:47.023Z,93.40
2018-12-02T17:31:23.824Z,93.30
2018-12-02T17:32:58.754Z,93.20
2018-12-02T17:34:33.631Z,93.30
2018-12-02T17:36:08.537Z,93.50
2018-12-02T17:37:45.030Z,93.60
2018-12-02T17:39:26.983Z,93.60
2018-12-02T17:41:01.877Z,93.50
2018-12-02T17:42:36.849Z,93.60
2018-12-02T17:44:11.811Z,93.70
2018-12-02T17:45:46.725Z,93.70
2018-12-02T17:47:21.603Z,93.70
2018-12-02T17:48:56.529Z,93.90
2018-12-02T17:50:31.408Z,93.80
2018-12-02T17:52:07.407Z,93.80
2018-12-02T17:53:42.975Z,93.90
2018-12-02T17:55:17.870Z,93.90
2018-12-02T17:56:52.739Z,94.00
2018-12-02T17:58:27.586Z,94.10
2018-12-02T18:00:02.536Z,94.20
2018-12-02T18:01:37.406Z,94.10
2018-12-02T18:03:15.203Z,94.20
2018-12-02T18:04:50.077Z,94.70
2018-12-02T18:06:25.006Z,94.60
2018-12-02T18:07:59.878Z,94.70
2018-12-02T18:09:34.754Z,94.40
2018-12-02T18:11:09.658Z,94.90
2018-12-02T18:12:44.601Z,94.60
2018-12-02T18:14:19.538Z,95.10
2018-12-02T18:15:54.453Z,95.10
2018-12-02T18:17:29.477Z,94.80
2018-12-02T18:19:04.412Z,95.20
2018-12-02T18:20:39.338Z,95.40
2018-12-02T18:22:14.274Z,95.40
2018-12-02T18:23:49.182Z,95.40
2018-12-02T18:25:24.078Z,95.30
2018-12-02T18:26:59.192Z,95.00
2018-12-02T18:28:34.072Z,95.00
2018-12-02T18:30:16.584Z,95.20
2018-12-02T18:31:51.463Z,95.30
2018-12-02T18:33:26.518Z,95.30
2018-12-02T18:35:01.553Z,95.20
2018-12-02T18:36:37.488Z,95.30
2018-12-02T18:38:15.998Z,95.40
2018-12-02T18:39:51.024Z,95.20
2018-12-02T18:41:46.153Z,95.10
2018-12-02T18:43:21.069Z,95.00
2018-12-02T18:44:55.973Z,95.30
2018-12-02T18:46:30.846Z,95.30
2018-12-02T18:48:06.115Z,95.40
2018-12-02T18:49:41.116Z,95.40
2018-12-02T18:51:16.023Z,95.40
2018-12-02T18:52:50.880Z,95.20
2018-12-02T18:54:25.781Z,95.30
2018-12-02T18:56:00.715Z,95.10
2018-12-02T18:57:35.600Z,95.10
2018-12-02T18:59:10.489Z,95.10
2018-12-02T19:00:46.701Z,95.00
2018-12-02T19:02:21.590Z,95.00
2018-12-02T19:03:56.468Z,94.90
2018-12-02T19:05:31.404Z,94.90
2018-12-02T19:07:06.385Z,94.90
2018-12-02T19:08:41.258Z,94.80
2018-12-02T19:10:18.924Z,94.70
2018-12-02T19:11:53.804Z,94.80
2018-12-02T19:13:28.852Z,94.70
2018-12-02T19:15:03.779Z,94.70
2018-12-02T19:16:38.712Z,94.70
2018-12-02T19:18:13.569Z,94.60
2018-12-02T19:19:48.457Z,94.60
2018-12-02T19:21:26.238Z,94.60
2018-12-02T19:23:03.623Z,94.40
2018-12-02T19:24:38.516Z,94.40
2018-12-02T19:26:13.392Z,94.50
2018-12-02T19:27:48.352Z,94.40
2018-12-02T19:29:23.241Z,94.50
2018-12-02T19:30:58.145Z,94.80
2018-12-02T19:32:33.013Z,94.30
2018-12-02T19:34:08.329Z,94.50
2018-12-02T19:35:43.302Z,94.20
2018-12-02T19:37:18.183Z,94.40
2018-12-02T19:38:53.057Z,94.20
2018-12-02T19:40:28.040Z,94.30
2018-12-02T19:42:02.911Z,94.30
2018-12-02T19:43:37.837Z,94.20
2018-12-02T19:45:16.782Z,94.20
2018-12-02T19:46:51.715Z,94.30
2018-12-02T19:48:26.602Z,94.20
2018-12-02T19:50:03.327Z,94.20
2018-12-02T19:51:38.209Z,94.10
2018-12-02T19:53:13.223Z,94.40
2018-12-02T19:54:48.179Z,94.10
2018-12-02T19:56:23.072Z,94.00
2018-12-02T19:57:57.992Z,94.10
2018-12-02T19:59:32.995Z,94.00
2018-12-02T20:01:07.908Z,93.80
2018-12-02T20:02:42.777Z,93.80
2018-12-02T20:04:17.701Z,93.90
2018-12-02T20:05:52.789Z,93.90
2018-12-02T20:07:27.779Z,93.80
2018-12-02T20:09:02.653Z,93.80
2018-12-02T20:10:37.652Z,93.80
2018-12-02T20:12:13.726Z,93.80
2018-12-02T20:13:48.724Z,93.50
2018-12-02T20:15:23.590Z,93.90
2018-12-02T20:16:58.509Z,93.80
2018-12-02T20:18:33.371Z,94.00
2018-12-02T20:20:22.578Z,94.20
2018-12-02T20:21:57.513Z,93.70
2018-12-02T20:23:37.902Z,93.60
2018-12-02T20:25:12.867Z,93.70
2018-12-02T20:26:47.789Z,93.40
2018-12-02T20:28:24.507Z,93.50
2018-12-02T20:29:59.417Z,93.40
2018-12-02T20:31:34.538Z,93.70
2018-12-02T20:33:09.417Z,93.50
2018-12-02T20:34:44.364Z,93.20